KMRC/MRC METAR and TAF weather

Enter ICAO airport designator
Station Type Date Time Source
KMRC METAR 2020/10/20 17:35 UTC NOAA

KMRC 201735Z AUTO 20006KT 9SM OVC060 23/17 A3016 RMK A01


Station Type Date Time Source
KMRC Decoded METAR 2020/10/20 17:35 UTC NOAA

Columbia / Maury County, TN, United States (KMRC) 35-33N 087-11W
Oct 20, 2020 - 01:35 PM EDT / 2020.10.20 1735 UTC
Wind: from the SSW (200 degrees) at 7 MPH (6 KT):0
Visibility: 9 mile(s):0
Sky conditions: overcast
Temperature: 73 F (23 C)
Dew Point: 62 F (17 C)
Relative Humidity: 68%
Pressure (altimeter): 30.16 in. Hg (1021 hPa)
ob: KMRC 201735Z AUTO 20006KT 9SM OVC060 23/17 A3016 RMK A01
cycle: 17

Station Type Date Time Source
KMRC TAF 2009/08/31 19:45 UTC NOAA

METAR KMRC 311945Z AUTO 06008KT 10SM CLR 26/12 A3010
RMK AO1 T02550116 $

Example: see airport list